createdAt,value
2019-06-15T00:00:36.460Z,6.10
2019-06-15T00:03:02.442Z,6.13
2019-06-15T00:05:29.341Z,5.70
2019-06-15T00:07:55.145Z,4.97
2019-06-15T00:10:20.942Z,4.67
2019-06-15T00:12:47.683Z,5.63
2019-06-15T00:15:13.513Z,4.83
2019-06-15T00:17:39.268Z,5.27
2019-06-15T00:20:05.399Z,5.20
2019-06-15T00:22:31.336Z,5.30
2019-06-15T00:24:57.128Z,4.97
2019-06-15T00:27:22.809Z,5.30
2019-06-15T00:29:48.701Z,5.63
2019-06-15T00:32:14.387Z,4.70
2019-06-15T00:34:40.097Z,5.10
2019-06-15T00:37:06.185Z,5.23
2019-06-15T00:39:32.152Z,4.53
2019-06-15T00:41:57.850Z,4.73
2019-06-15T00:44:23.663Z,5.17
2019-06-15T00:46:49.390Z,4.43
2019-06-15T00:49:15.230Z,4.83
2019-06-15T00:51:40.951Z,4.60
2019-06-15T00:54:06.700Z,4.23
2019-06-15T00:56:32.381Z,5.27
2019-06-15T00:58:58.032Z,5.27
2019-06-15T01:01:23.683Z,4.60
2019-06-15T01:03:51.825Z,4.80
2019-06-15T01:06:17.473Z,4.47
2019-06-15T01:08:43.231Z,4.90
2019-06-15T01:11:11.178Z,5.00
2019-06-15T01:13:36.959Z,5.10
2019-06-15T01:16:02.767Z,4.77
2019-06-15T01:18:28.956Z,4.30
2019-06-15T01:20:54.861Z,5.17
2019-06-15T01:23:20.707Z,4.60
2019-06-15T01:25:46.797Z,5.60
2019-06-15T01:28:12.494Z,5.40
2019-06-15T01:30:38.268Z,5.43
2019-06-15T01:33:04.040Z,4.93
2019-06-15T01:35:29.983Z,5.73
2019-06-15T01:37:55.799Z,5.23
2019-06-15T01:40:21.899Z,5.40
2019-06-15T01:42:47.574Z,5.30
2019-06-15T01:45:13.900Z,5.40
2019-06-15T01:47:39.862Z,5.13
2019-06-15T01:50:06.059Z,5.50
2019-06-15T01:52:31.822Z,6.07
2019-06-15T01:54:57.706Z,5.63
2019-06-15T01:57:23.496Z,5.33
2019-06-15T01:59:49.156Z,5.87
2019-06-15T02:02:15.079Z,5.60
2019-06-15T02:04:40.820Z,5.30
2019-06-15T02:07:06.581Z,5.93
2019-06-15T02:09:32.231Z,5.87
2019-06-15T02:11:58.001Z,5.57
2019-06-15T02:14:23.688Z,5.47
2019-06-15T02:16:49.766Z,5.30
2019-06-15T02:19:15.578Z,5.47
2019-06-15T02:21:41.263Z,5.10
2019-06-15T02:24:07.132Z,5.30
2019-06-15T02:26:32.966Z,5.27
2019-06-15T02:28:59.816Z,5.10
2019-06-15T02:31:25.559Z,5.00
2019-06-15T02:33:51.459Z,5.27
2019-06-15T02:36:17.136Z,5.20
2019-06-15T02:38:42.990Z,5.70
2019-06-15T02:41:09.058Z,5.40
2019-06-15T02:43:35.003Z,6.50
2019-06-15T02:46:01.177Z,5.60
2019-06-15T02:48:26.961Z,5.43
2019-06-15T02:50:52.980Z,5.27
2019-06-15T02:53:18.765Z,5.57
2019-06-15T02:55:50.713Z,5.17
2019-06-15T02:58:12.242Z,5.13
2019-06-15T03:00:48.199Z,5.27
2019-06-15T03:03:14.101Z,6.00
2019-06-15T03:05:40.349Z,5.93
2019-06-15T03:08:06.147Z,5.70
2019-06-15T03:10:32.599Z,6.20
2019-06-15T03:12:59.239Z,5.17
2019-06-15T03:15:25.031Z,5.53
2019-06-15T03:17:50.791Z,5.70
2019-06-15T03:20:16.956Z,5.60
2019-06-15T03:22:42.771Z,5.10
2019-06-15T03:25:09.481Z,5.70
2019-06-15T03:27:35.180Z,5.20
2019-06-15T03:30:02.148Z,5.50
2019-06-15T03:32:27.912Z,5.77
2019-06-15T03:34:53.859Z,6.47
2019-06-15T03:37:19.637Z,6.60
2019-06-15T03:39:45.415Z,7.13
2019-06-15T03:42:11.062Z,6.30
2019-06-15T03:44:36.769Z,7.20
2019-06-15T03:47:02.642Z,7.50
2019-06-15T03:49:28.387Z,7.47
2019-06-15T03:51:54.170Z,7.50
2019-06-15T03:54:20.039Z,8.10
2019-06-15T03:56:46.021Z,8.07
2019-06-15T03:59:11.671Z,8.27
2019-06-15T04:01:44.159Z,8.23
2019-06-15T04:04:09.860Z,8.13
2019-06-15T04:06:35.653Z,8.23
2019-06-15T04:09:01.422Z,8.80
2019-06-15T04:11:29.140Z,7.80
2019-06-15T04:13:54.925Z,8.80
2019-06-15T04:16:20.675Z,9.97
2019-06-15T04:18:46.358Z,10.53
2019-06-15T04:21:12.162Z,8.73
2019-06-15T04:23:37.833Z,10.03
2019-06-15T04:26:03.622Z,10.10
2019-06-15T04:28:29.327Z,9.40
2019-06-15T04:30:55.198Z,9.93
2019-06-15T04:33:20.963Z,9.47
2019-06-15T04:35:46.622Z,9.67
2019-06-15T04:38:12.438Z,10.07
2019-06-15T04:40:38.462Z,9.23
2019-06-15T04:43:04.457Z,9.40
2019-06-15T04:45:30.502Z,10.13
2019-06-15T04:47:56.335Z,10.13
2019-06-15T04:50:22.038Z,9.80
2019-06-15T04:52:48.169Z,10.00
2019-06-15T04:55:14.061Z,11.00
2019-06-15T04:57:39.909Z,10.77
2019-06-15T05:00:07.300Z,10.33
2019-06-15T05:02:33.108Z,10.80
2019-06-15T05:04:59.011Z,11.33
2019-06-15T05:07:24.830Z,11.60
2019-06-15T05:09:50.533Z,11.47
2019-06-15T05:12:16.351Z,12.33
2019-06-15T05:14:42.143Z,11.80
2019-06-15T05:17:07.970Z,11.47
2019-06-15T05:19:33.888Z,13.30
2019-06-15T05:21:59.839Z,12.57
2019-06-15T05:24:25.703Z,12.57
2019-06-15T05:27:05.538Z,12.97
2019-06-15T05:29:19.845Z,12.40
2019-06-15T05:31:45.641Z,13.30
2019-06-15T05:34:11.431Z,12.30
2019-06-15T05:36:37.311Z,12.33
2019-06-15T05:39:05.114Z,13.73
2019-06-15T05:41:30.928Z,13.57
2019-06-15T05:43:56.755Z,13.33
2019-06-15T05:46:22.888Z,14.83
2019-06-15T05:48:48.607Z,15.23
2019-06-15T05:51:14.855Z,14.73
2019-06-15T05:53:40.672Z,15.60
2019-06-15T05:56:06.463Z,15.33
2019-06-15T05:58:32.245Z,16.30
2019-06-15T06:00:57.922Z,16.07
2019-06-15T06:03:23.648Z,16.40
2019-06-15T06:05:49.415Z,17.30
2019-06-15T06:08:15.176Z,16.67
2019-06-15T06:10:41.050Z,17.83
2019-06-15T06:13:06.864Z,16.97
2019-06-15T06:15:32.667Z,16.90
2019-06-15T06:17:59.632Z,17.33
2019-06-15T06:20:25.421Z,17.67
2019-06-15T06:22:51.100Z,16.07
2019-06-15T06:25:17.024Z,16.80
2019-06-15T06:27:42.735Z,15.10
2019-06-15T06:30:09.351Z,15.20
2019-06-15T06:32:35.169Z,14.40
2019-06-15T06:35:01.053Z,13.50
2019-06-15T06:37:49.563Z,15.57
2019-06-15T06:40:15.474Z,13.70
2019-06-15T06:42:41.392Z,11.60
2019-06-15T06:45:08.647Z,10.10
2019-06-15T06:47:35.334Z,10.30
2019-06-15T06:50:02.689Z,9.13
2019-06-15T06:52:28.560Z,9.40
2019-06-15T06:54:54.429Z,9.50
2019-06-15T06:57:20.368Z,10.33
2019-06-15T06:59:46.232Z,11.83
2019-06-15T07:02:12.052Z,12.40
2019-06-15T07:04:37.763Z,11.83
2019-06-15T07:07:03.597Z,13.00
2019-06-15T07:09:29.303Z,12.90
2019-06-15T07:11:55.254Z,12.57
2019-06-15T07:14:21.527Z,13.30
2019-06-15T07:16:47.368Z,13.50
2019-06-15T07:19:13.192Z,12.90
2019-06-15T07:21:38.867Z,12.37
2019-06-15T07:24:04.838Z,12.90
2019-06-15T07:26:30.495Z,13.07
2019-06-15T07:28:56.568Z,12.80
2019-06-15T07:31:22.512Z,13.50
2019-06-15T07:33:48.206Z,12.10
2019-06-15T07:36:13.891Z,11.73
2019-06-15T07:38:39.657Z,11.13
2019-06-15T07:41:05.530Z,11.87
2019-06-15T07:43:31.344Z,12.43
2019-06-15T07:46:04.414Z,12.70
2019-06-15T07:48:30.460Z,12.70
2019-06-15T07:50:56.457Z,13.40
2019-06-15T07:53:22.195Z,14.50
2019-06-15T07:55:47.984Z,13.27
2019-06-15T07:58:24.162Z,12.93
2019-06-15T08:00:42.522Z,13.40
2019-06-15T08:03:12.459Z,13.73
2019-06-15T08:05:38.432Z,14.00
2019-06-15T08:08:04.581Z,12.73
2019-06-15T08:10:31.007Z,13.80
2019-06-15T08:12:56.942Z,14.47
2019-06-15T08:15:23.062Z,14.03
2019-06-15T08:17:48.828Z,13.73
2019-06-15T08:20:15.709Z,12.30
2019-06-15T08:22:41.638Z,13.00
2019-06-15T08:25:07.980Z,13.13
2019-06-15T08:27:33.806Z,13.57
2019-06-15T08:29:59.481Z,12.97
2019-06-15T08:32:25.598Z,13.20
2019-06-15T08:34:51.306Z,13.30
2019-06-15T08:37:17.226Z,14.37
2019-06-15T08:39:43.054Z,14.23
2019-06-15T08:42:08.815Z,13.00
2019-06-15T08:44:34.660Z,14.00
2019-06-15T08:47:00.452Z,13.27
2019-06-15T08:49:26.297Z,12.47
2019-06-15T08:51:52.192Z,12.17
2019-06-15T08:54:18.028Z,12.90
2019-06-15T08:56:43.828Z,12.50
2019-06-15T08:59:10.062Z,12.20
2019-06-15T09:01:36.488Z,12.17
2019-06-15T09:04:02.336Z,12.67
2019-06-15T09:06:28.119Z,11.10
2019-06-15T09:08:54.077Z,10.70
2019-06-15T09:11:19.969Z,11.90
2019-06-15T09:13:47.146Z,10.43
2019-06-15T09:16:12.816Z,9.10
2019-06-15T09:18:38.505Z,9.70
2019-06-15T09:21:04.307Z,11.03
2019-06-15T09:23:30.345Z,11.10
2019-06-15T09:25:56.155Z,10.00
2019-06-15T09:28:21.941Z,10.17
2019-06-15T09:30:47.584Z,9.60
2019-06-15T09:33:13.737Z,9.17
2019-06-15T09:35:39.601Z,10.60
2019-06-15T09:38:05.423Z,9.70
2019-06-15T09:40:31.243Z,9.30
2019-06-15T09:42:57.212Z,9.80
2019-06-15T09:45:23.089Z,9.50
2019-06-15T09:47:48.932Z,8.90
2019-06-15T09:50:14.912Z,8.83
2019-06-15T09:52:41.753Z,7.80
2019-06-15T09:55:07.914Z,7.70
2019-06-15T09:57:34.075Z,7.53
2019-06-15T09:59:59.760Z,7.63
2019-06-15T10:02:25.588Z,7.70
2019-06-15T10:04:51.366Z,7.30
2019-06-15T10:07:17.170Z,7.53
2019-06-15T10:09:43.202Z,7.27
2019-06-15T10:12:09.007Z,6.70
2019-06-15T10:14:34.832Z,6.47
2019-06-15T10:17:00.871Z,7.23
2019-06-15T10:19:26.848Z,7.00
2019-06-15T10:21:52.541Z,5.97
2019-06-15T10:24:18.277Z,6.50
2019-06-15T10:26:44.431Z,5.80
2019-06-15T10:29:10.944Z,5.40
2019-06-15T10:31:37.060Z,5.47
2019-06-15T10:34:03.276Z,5.53
2019-06-15T10:36:29.071Z,5.37
2019-06-15T10:38:55.243Z,5.13
2019-06-15T10:41:20.904Z,5.40
2019-06-15T10:43:46.889Z,5.37
2019-06-15T10:46:12.688Z,4.10
2019-06-15T10:48:38.612Z,4.57
2019-06-15T10:51:04.415Z,4.77
2019-06-15T10:53:30.258Z,4.30
2019-06-15T10:55:56.090Z,4.17
2019-06-15T10:58:23.019Z,4.20
2019-06-15T11:00:49.942Z,4.97
2019-06-15T11:03:15.755Z,5.27
2019-06-15T11:05:42.021Z,4.53
2019-06-15T11:08:07.997Z,4.80
2019-06-15T11:10:51.058Z,4.37
2019-06-15T11:13:16.876Z,5.80
2019-06-15T11:15:42.838Z,5.40
2019-06-15T11:18:08.883Z,6.70
2019-06-15T11:20:34.597Z,5.40
2019-06-15T11:23:00.332Z,5.20
2019-06-15T11:25:26.396Z,5.07
2019-06-15T11:27:53.286Z,5.30
2019-06-15T11:30:18.956Z,5.90
2019-06-15T11:32:44.857Z,5.30
2019-06-15T11:35:10.846Z,6.03
2019-06-15T11:37:36.675Z,5.40
2019-06-15T11:40:02.676Z,6.50
2019-06-15T11:42:28.457Z,6.30
2019-06-15T11:44:54.351Z,5.70
2019-06-15T11:47:20.131Z,6.10
2019-06-15T11:49:46.151Z,6.00
2019-06-15T11:52:11.947Z,7.57
2019-06-15T11:54:38.037Z,6.53
2019-06-15T11:57:04.206Z,6.93
2019-06-15T11:59:30.111Z,7.00
2019-06-15T12:01:56.442Z,7.80
2019-06-15T12:04:22.119Z,8.17
2019-06-15T12:06:47.967Z,9.00
2019-06-15T12:09:13.914Z,8.73
2019-06-15T12:11:39.713Z,8.73
2019-06-15T12:14:06.245Z,8.33
2019-06-15T12:16:32.058Z,8.50
2019-06-15T12:18:57.749Z,8.80
2019-06-15T12:21:23.528Z,9.17
2019-06-15T12:23:50.515Z,9.17
2019-06-15T12:26:16.334Z,8.90
2019-06-15T12:28:42.356Z,8.53
2019-06-15T12:31:08.127Z,9.03
2019-06-15T12:33:33.910Z,8.93
2019-06-15T12:35:59.605Z,9.07
2019-06-15T12:38:25.742Z,9.00
2019-06-15T12:40:51.923Z,9.40
2019-06-15T12:43:17.629Z,9.20
2019-06-15T12:45:43.472Z,9.07
2019-06-15T12:48:09.301Z,9.50
2019-06-15T12:50:34.931Z,10.50
2019-06-15T12:53:01.724Z,13.90
2019-06-15T12:55:28.192Z,13.77
2019-06-15T12:57:53.951Z,14.90
2019-06-15T13:00:25.796Z,14.73
2019-06-15T13:02:51.510Z,17.57
2019-06-15T13:05:17.289Z,19.67
2019-06-15T13:07:42.987Z,19.57
2019-06-15T13:10:08.867Z,20.30
2019-06-15T13:12:34.751Z,21.30
2019-06-15T13:15:00.536Z,23.47
2019-06-15T13:17:27.631Z,24.40
2019-06-15T13:19:53.447Z,23.97
2019-06-15T13:22:19.264Z,24.87
2019-06-15T13:24:45.017Z,23.90
2019-06-15T13:27:11.619Z,24.53
2019-06-15T13:29:37.439Z,26.33
2019-06-15T13:32:03.468Z,24.00
2019-06-15T13:34:29.367Z,24.27
2019-06-15T13:36:55.288Z,25.47
2019-06-15T13:39:21.095Z,25.43
2019-06-15T13:41:46.876Z,25.50
2019-06-15T13:44:12.653Z,23.50
2019-06-15T13:46:38.783Z,22.77
2019-06-15T13:49:04.551Z,22.83
2019-06-15T13:51:30.551Z,24.47
2019-06-15T13:53:56.347Z,21.87
2019-06-15T13:56:22.176Z,21.97
2019-06-15T13:58:48.694Z,17.90
2019-06-15T14:01:14.649Z,15.27
2019-06-15T14:03:40.529Z,13.77
2019-06-15T14:06:06.999Z,14.67
2019-06-15T14:08:33.347Z,12.73
2019-06-15T14:10:58.987Z,14.10
2019-06-15T14:13:25.112Z,14.10
2019-06-15T14:15:51.620Z,14.00
2019-06-15T14:18:17.403Z,13.10
2019-06-15T14:20:43.334Z,11.60
2019-06-15T14:23:09.257Z,10.10
2019-06-15T14:25:38.047Z,10.77
2019-06-15T14:28:03.842Z,9.30
2019-06-15T14:30:29.791Z,9.87
2019-06-15T14:32:55.789Z,9.40
2019-06-15T14:35:22.175Z,7.30
2019-06-15T14:37:48.282Z,7.30
2019-06-15T14:40:14.296Z,7.73
2019-06-15T14:42:40.059Z,8.90
2019-06-15T14:45:07.853Z,9.80
2019-06-15T14:47:34.096Z,9.53
2019-06-15T14:50:00.551Z,10.30
2019-06-15T14:52:26.358Z,10.10
2019-06-15T14:54:52.208Z,10.17
2019-06-15T14:57:17.946Z,10.00
2019-06-15T14:59:54.056Z,9.73
2019-06-15T15:02:14.324Z,8.87
2019-06-15T15:04:39.385Z,8.10
2019-06-15T15:07:05.488Z,6.90
2019-06-15T15:09:31.610Z,5.97
2019-06-15T15:11:57.552Z,5.97
2019-06-15T15:14:25.914Z,5.33
2019-06-15T15:16:51.585Z,5.23
2019-06-15T15:19:18.370Z,5.20
2019-06-15T15:21:46.141Z,4.37
2019-06-15T15:24:13.472Z,4.93
2019-06-15T15:26:39.704Z,4.67
2019-06-15T15:29:07.013Z,3.90
2019-06-15T15:31:36.255Z,4.27
2019-06-15T15:34:04.308Z,4.20
2019-06-15T15:36:30.964Z,4.37
2019-06-15T15:38:58.406Z,3.40
2019-06-15T15:41:26.640Z,3.23
2019-06-15T15:43:52.116Z,3.30
2019-06-15T15:46:18.034Z,3.40
2019-06-15T15:48:46.687Z,2.60
2019-06-15T15:51:11.747Z,2.93
2019-06-15T15:53:37.657Z,3.07
2019-06-15T15:56:06.396Z,3.43
2019-06-15T15:58:32.293Z,3.03
2019-06-15T16:00:58.345Z,3.23
2019-06-15T16:03:26.313Z,3.80
2019-06-15T16:05:51.786Z,3.13
2019-06-15T16:08:17.451Z,3.17
2019-06-15T16:10:46.003Z,3.23
2019-06-15T16:13:11.171Z,3.00
2019-06-15T16:15:37.707Z,3.57
2019-06-15T16:18:03.653Z,4.20
2019-06-15T16:20:30.111Z,4.10
2019-06-15T16:22:56.535Z,3.47
2019-06-15T16:25:22.774Z,4.00
2019-06-15T16:27:48.620Z,4.03
2019-06-15T16:30:46.106Z,4.50
2019-06-15T16:33:00.405Z,4.10
2019-06-15T16:35:19.885Z,3.70
2019-06-15T16:37:45.649Z,4.80
2019-06-15T16:40:12.505Z,3.77
2019-06-15T16:42:38.313Z,4.20
2019-06-15T16:45:06.810Z,4.77
2019-06-15T16:47:33.127Z,4.40
2019-06-15T16:50:03.491Z,4.83
2019-06-15T16:52:29.371Z,4.70
2019-06-15T16:54:55.258Z,5.47
2019-06-15T16:57:21.395Z,4.30
2019-06-15T16:59:47.063Z,5.47
2019-06-15T17:02:12.886Z,5.67
2019-06-15T17:04:38.743Z,4.60
2019-06-15T17:07:06.910Z,5.50
2019-06-15T17:09:32.444Z,6.20
2019-06-15T17:11:58.141Z,5.60
2019-06-15T17:14:24.012Z,7.57
2019-06-15T17:16:49.717Z,10.33
2019-06-15T17:19:16.498Z,10.67
2019-06-15T17:21:42.544Z,10.10
2019-06-15T17:24:08.380Z,9.47
2019-06-15T17:26:36.430Z,8.60
2019-06-15T17:29:01.928Z,7.37
2019-06-15T17:31:27.754Z,7.07
2019-06-15T17:33:53.520Z,6.67
2019-06-15T17:36:19.368Z,6.40
2019-06-15T17:38:46.230Z,6.07
2019-06-15T17:41:12.240Z,5.90
2019-06-15T17:43:38.370Z,5.37
2019-06-15T17:46:06.980Z,5.50
2019-06-15T17:48:32.292Z,4.17
2019-06-15T17:50:58.246Z,3.63
2019-06-15T17:53:26.230Z,2.67
2019-06-15T17:55:51.957Z,2.90
2019-06-15T17:58:17.879Z,3.00
2019-06-15T18:00:47.489Z,3.10
2019-06-15T18:03:16.613Z,3.10
2019-06-15T18:05:42.285Z,2.70
2019-06-15T18:08:08.401Z,3.13
2019-06-15T18:10:36.277Z,3.00
2019-06-15T18:13:02.384Z,2.73
2019-06-15T18:15:28.380Z,3.17
2019-06-15T18:17:54.241Z,2.27
2019-06-15T18:20:21.757Z,3.40
2019-06-15T18:22:48.455Z,3.13
2019-06-15T18:25:14.764Z,2.90
2019-06-15T18:27:40.766Z,2.80
2019-06-15T18:30:07.159Z,3.30
2019-06-15T18:32:33.147Z,2.40
2019-06-15T18:35:01.310Z,3.10
2019-06-15T18:37:27.422Z,2.80
2019-06-15T18:39:55.955Z,2.77
2019-06-15T18:42:25.959Z,3.03
2019-06-15T18:44:53.276Z,3.00
2019-06-15T18:47:20.751Z,3.47
2019-06-15T18:49:47.389Z,2.80
2019-06-15T18:52:13.798Z,3.47
2019-06-15T18:54:46.542Z,2.80
2019-06-15T18:57:11.776Z,3.00
2019-06-15T18:59:38.390Z,2.37
2019-06-15T19:02:19.607Z,2.53
2019-06-15T19:04:45.633Z,2.27
2019-06-15T19:07:16.252Z,3.10
2019-06-15T19:09:41.999Z,2.17
2019-06-15T19:12:07.997Z,2.20
2019-06-15T19:14:36.181Z,2.10
2019-06-15T19:17:06.051Z,2.07
2019-06-15T19:19:32.052Z,2.20
2019-06-15T19:22:00.564Z,2.00
2019-06-15T19:24:26.371Z,1.90
2019-06-15T19:26:52.460Z,1.97
2019-06-15T19:29:19.428Z,2.27
2019-06-15T19:31:46.784Z,1.90
2019-06-15T19:39:48.552Z,2.10
2019-06-15T19:42:14.634Z,1.90
2019-06-15T19:44:40.384Z,2.50
2019-06-15T19:47:07.211Z,2.50
2019-06-15T19:49:36.130Z,3.10
2019-06-15T19:52:01.127Z,2.63
2019-06-15T19:54:27.190Z,2.80
2019-06-15T19:56:56.433Z,2.70
2019-06-15T19:59:22.453Z,2.43
2019-06-15T20:01:49.447Z,2.73
2019-06-15T20:04:16.929Z,2.27
2019-06-15T20:06:42.831Z,2.30
2019-06-15T20:09:09.899Z,2.80
2019-06-15T20:11:37.866Z,2.50
2019-06-15T20:14:03.842Z,2.37
2019-06-15T20:16:29.664Z,2.30
2019-06-15T20:18:56.283Z,2.30
2019-06-15T20:21:22.211Z,2.50
2019-06-15T20:23:48.135Z,2.43
2019-06-15T20:26:15.964Z,2.40
2019-06-15T20:28:42.240Z,2.33
2019-06-15T20:31:07.943Z,2.30
2019-06-15T20:33:33.725Z,2.53
2019-06-15T20:36:00.157Z,2.40
2019-06-15T20:38:27.094Z,2.20
2019-06-15T20:40:53.193Z,2.60
2019-06-15T20:43:19.142Z,2.37
2019-06-15T20:45:46.885Z,2.40
2019-06-15T20:48:13.027Z,2.37
2019-06-15T20:50:40.515Z,2.33
2019-06-15T20:53:07.335Z,2.63
2019-06-15T20:55:34.127Z,2.37
2019-06-15T20:57:59.891Z,2.87
2019-06-15T21:00:26.306Z,2.70
2019-06-15T21:02:52.632Z,2.60
2019-06-15T21:05:33.538Z,2.70
2019-06-15T21:07:46.700Z,2.80
2019-06-15T21:10:15.917Z,2.50
2019-06-15T21:12:41.577Z,2.77
2019-06-15T21:15:07.667Z,2.60
2019-06-15T21:17:33.765Z,3.40
2019-06-15T21:19:59.522Z,3.97
2019-06-15T21:22:26.332Z,3.50
2019-06-15T21:24:54.708Z,4.10
2019-06-15T21:27:19.865Z,4.73
2019-06-15T21:29:45.856Z,5.30
2019-06-15T21:32:11.653Z,4.60
2019-06-15T21:34:37.405Z,4.40
2019-06-15T21:37:03.159Z,3.80
2019-06-15T21:39:28.951Z,3.80
2019-06-15T21:41:56.751Z,4.30
2019-06-15T21:44:22.128Z,6.70
2019-06-15T21:46:47.888Z,4.33
2019-06-15T21:49:15.817Z,4.47
2019-06-15T21:51:41.382Z,4.30
2019-06-15T21:54:07.279Z,4.03
2019-06-15T21:56:33.056Z,3.97
2019-06-15T21:58:58.817Z,4.23
2019-06-15T22:01:31.358Z,3.70
2019-06-15T22:03:58.372Z,4.20
2019-06-15T22:06:26.208Z,4.07
2019-06-15T22:08:51.855Z,4.90
2019-06-15T22:11:17.556Z,3.90
2019-06-15T22:13:43.487Z,3.50
2019-06-15T22:16:09.224Z,3.87
2019-06-15T22:18:36.434Z,4.30
2019-06-15T22:21:02.447Z,3.80
2019-06-15T22:23:28.328Z,4.07
2019-06-15T22:25:53.961Z,3.77
2019-06-15T22:28:19.750Z,3.80
2019-06-15T22:30:46.195Z,5.13
2019-06-15T22:33:12.149Z,4.90
2019-06-15T22:35:37.994Z,4.83
2019-06-15T22:38:03.851Z,5.00
2019-06-15T22:40:29.531Z,5.60
2019-06-15T22:42:56.285Z,6.47
2019-06-15T22:45:22.347Z,5.60
2019-06-15T22:47:48.247Z,5.50
2019-06-15T22:50:16.114Z,4.90
2019-06-15T22:52:41.915Z,4.40
2019-06-15T22:55:07.879Z,4.07
2019-06-15T22:57:33.852Z,3.87
2019-06-15T22:59:59.536Z,4.60
2019-06-15T23:02:26.116Z,4.40
2019-06-15T23:04:52.095Z,4.20
2019-06-15T23:07:17.797Z,3.37
2019-06-15T23:09:43.425Z,3.67
2019-06-15T23:12:09.211Z,3.47
2019-06-15T23:14:37.162Z,3.90
2019-06-15T23:17:02.521Z,3.17
2019-06-15T23:19:28.217Z,3.70
2019-06-15T23:21:54.059Z,3.63
2019-06-15T23:24:19.966Z,4.23
2019-06-15T23:26:46.207Z,3.10
2019-06-15T23:29:12.007Z,3.30
2019-06-15T23:31:37.760Z,4.07
2019-06-15T23:34:06.782Z,3.80
2019-06-15T23:36:47.314Z,3.93
2019-06-15T23:39:05.454Z,4.47
2019-06-15T23:41:31.900Z,3.70
2019-06-15T23:43:57.674Z,4.07
2019-06-15T23:46:23.442Z,4.00
2019-06-15T23:48:49.126Z,4.13
2019-06-15T23:51:16.931Z,4.00
2019-06-15T23:53:42.761Z,4.37
2019-06-15T23:56:08.443Z,4.27
2019-06-15T23:58:36.824Z,4.40
